Time;durP1;ratioP1;P1;durP2;ratioP2;P2;SDS_P1;SDS_P2;PMS_P1;PMS_P2;Temp;Humidity;BMP_temperature;BMP_pressure;BME280_temperature;BME280_humidity;BME280_pressure;Samples;Min_cycle;Max_cycle;Signal;HPM_P1;HPM_P2
2021/12/25 00:01:09;;;;;;;10.63;7.43;;;;;;;19.70;33.61;98350.72;5110020;28;20079;-57
2021/12/25 00:03:36;;;;;;;10.45;8.10;;;;;;;19.70;33.55;98340.41;5110391;28;20470;-57
2021/12/25 00:06:03;;;;;;;10.32;7.45;;;;;;;19.71;33.70;98344.75;5110418;28;20040;-57
2021/12/25 00:08:31;;;;;;;9.80;6.75;;;;;;;19.71;33.82;98342.00;5110352;28;20047;-66
2021/12/25 00:10:58;;;;;;;10.73;7.25;;;;;;;19.70;33.59;98342.38;5110221;28;20079;-66
2021/12/25 00:13:23;;;;;;;11.57;8.18;;;;;;;19.71;33.53;98330.09;5110250;28;20061;-66
2021/12/25 00:15:50;;;;;;;10.13;7.43;;;;;;;19.71;33.47;98336.44;5110298;28;20040;-66
2021/12/25 00:18:16;;;;;;;9.52;6.95;;;;;;;19.72;33.51;98335.28;5110156;28;20047;-66
2021/12/25 00:20:41;;;;;;;12.90;7.95;;;;;;;19.72;33.77;98331.72;5109845;28;20048;-66
2021/12/25 00:23:07;;;;;;;10.70;7.45;;;;;;;19.71;33.57;98335.66;5110207;28;20047;-66
2021/12/25 00:25:42;;;;;;;9.65;6.78;;;;;;;19.70;33.58;98336.84;5110349;28;20043;-66
2021/12/25 00:28:45;;;;;;;10.15;7.28;;;;;;;19.69;33.82;98333.28;5110396;28;20104;-66
2021/12/25 00:36:12;;;;;;;13.43;8.10;;;;;;;19.70;33.52;98325.75;5110151;28;20048;-66
2021/12/25 00:38:38;;;;;;;11.30;7.43;;;;;;;19.71;33.61;98325.34;5110159;28;20032;-66
2021/12/25 00:41:04;;;;;;;9.30;6.57;;;;;;;19.70;33.69;98326.53;5109938;28;20042;-66
2021/12/25 00:43:30;;;;;;;10.10;7.28;;;;;;;19.71;33.61;98339.22;5110057;28;20062;-66
2021/12/25 00:45:55;;;;;;;9.27;6.90;;;;;;;19.68;33.66;98328.91;5109826;28;20478;-57
2021/12/25 00:48:21;;;;;;;10.45;6.80;;;;;;;19.71;33.60;98333.66;5109783;28;20044;-67
2021/12/25 00:50:47;;;;;;;11.18;7.63;;;;;;;19.69;33.56;98324.94;5109773;28;20071;-66
2021/12/25 00:53:12;;;;;;;11.18;7.50;;;;;;;19.70;33.78;98320.97;5109719;28;20398;-66
2021/12/25 00:55:38;;;;;;;10.63;7.60;;;;;;;19.72;33.65;98318.63;5109764;28;20380;-66
2021/12/25 00:58:03;;;;;;;10.18;7.25;;;;;;;19.72;33.82;98302.00;5109902;28;20042;-66
2021/12/25 01:00:29;;;;;;;10.80;7.60;;;;;;;19.69;33.72;98313.06;5109697;28;20654;-57
2021/12/25 01:02:54;;;;;;;10.30;7.30;;;;;;;19.71;33.64;98311.47;5109726;28;20050;-57
2021/12/25 01:05:20;;;;;;;10.88;7.68;;;;;;;19.69;33.59;98308.31;5109603;28;20044;-57
2021/12/25 01:07:46;;;;;;;10.98;8.25;;;;;;;19.72;33.64;98315.84;5109591;28;20528;-57
2021/12/25 01:10:16;;;;;;;11.38;7.60;;;;;;;19.73;33.67;98314.66;5109419;28;20043;-57
2021/12/25 01:49:53;;;;;;;10.13;7.30;;;;;;;19.70;33.82;98314.66;5029812;28;20557;-57
2021/12/25 01:52:25;;;;;;;9.85;7.10;;;;;;;19.69;33.78;98316.63;5029755;28;20415;-57
2021/12/25 01:54:50;;;;;;;10.40;6.82;;;;;;;19.70;33.66;98303.53;5029408;28;20049;-57
2021/12/25 01:57:16;;;;;;;9.70;6.70;;;;;;;19.71;33.72;98308.69;5029594;28;20111;-57
2021/12/25 01:59:41;;;;;;;8.55;6.35;;;;;;;19.68;33.70;98306.72;5029686;28;20144;-57
2021/12/25 02:02:07;;;;;;;10.25;7.30;;;;;;;19.69;33.58;98313.84;5079352;28;20122;-57
2021/12/25 02:04:32;;;;;;;10.18;6.95;;;;;;;19.67;33.68;98305.13;5094152;28;20047;-57
2021/12/25 02:06:58;;;;;;;9.35;6.53;;;;;;;19.66;33.78;98303.56;5112250;28;20411;-57
2021/12/25 02:09:23;;;;;;;10.13;7.35;;;;;;;19.67;33.65;98298.81;5112335;28;20410;-57
2021/12/25 02:11:50;;;;;;;11.73;7.75;;;;;;;19.66;33.69;98298.00;5112240;28;20040;-57
2021/12/25 02:14:15;;;;;;;8.77;6.70;;;;;;;19.68;33.76;98297.59;5112411;28;20052;-57
2021/12/25 02:16:55;;;;;;;9.43;6.80;;;;;;;19.67;33.68;98293.25;5112052;28;20065;-57
2021/12/25 02:19:35;;;;;;;9.77;7.00;;;;;;;19.69;33.71;98290.88;5112307;28;20044;-57
2021/12/25 02:22:02;;;;;;;10.25;6.95;;;;;;;19.67;33.55;98280.16;5112126;28;20116;-57
2021/12/25 02:24:28;;;;;;;9.00;6.75;;;;;;;19.69;33.48;98279.78;5093941;28;20047;-57
2021/12/25 02:26:55;;;;;;;9.35;7.10;;;;;;;19.65;33.56;98274.22;5112137;28;20464;-57
2021/12/25 02:29:20;;;;;;;9.88;6.63;;;;;;;19.66;33.67;98280.56;5112016;28;20063;-57
2021/12/25 02:31:46;;;;;;;9.27;6.60;;;;;;;19.66;33.49;98286.13;5112057;28;20388;-57
2021/12/25 02:34:12;;;;;;;7.68;5.82;;;;;;;19.68;33.66;98292.06;5111877;28;20117;-57
2021/12/25 02:36:38;;;;;;;9.63;6.60;;;;;;;19.68;33.58;98287.31;5111759;28;20048;-57
2021/12/25 02:39:03;;;;;;;8.82;6.63;;;;;;;19.68;33.54;98287.31;5112087;28;20036;-57
2021/12/25 02:41:29;;;;;;;8.82;6.25;;;;;;;19.66;33.42;98275.81;5111362;28;20050;-57
2021/12/25 02:43:54;;;;;;;9.10;6.03;;;;;;;19.69;33.63;98268.69;5111609;28;20062;-57
2021/12/25 02:46:22;;;;;;;8.75;6.10;;;;;;;19.68;33.70;98267.88;5111668;28;20042;-66
2021/12/25 02:48:47;;;;;;;8.95;5.93;;;;;;;19.68;33.41;98272.63;5111754;28;20066;-66
2021/12/25 02:51:13;;;;;;;8.30;5.90;;;;;;;19.69;33.59;98280.56;5111665;28;20407;-66
2021/12/25 02:53:39;;;;;;;7.30;5.75;;;;;;;19.67;33.47;98282.94;5111471;28;20075;-66
2021/12/25 02:56:06;;;;;;;7.47;5.68;;;;;;;19.67;33.63;98282.94;5111683;28;20044;-66
2021/12/25 02:58:32;;;;;;;8.38;6.15;;;;;;;19.67;33.58;98266.31;5111550;28;20563;-66
2021/12/25 03:01:05;;;;;;;7.40;5.43;;;;;;;19.65;33.60;98265.13;5111414;28;20036;-66
2021/12/25 03:03:30;;;;;;;7.88;5.50;;;;;;;19.67;33.75;98263.53;5111291;28;20057;-66
2021/12/25 03:05:56;;;;;;;8.23;5.57;;;;;;;19.68;33.46;98264.31;5111446;28;20123;-66
2021/12/25 03:08:21;;;;;;;6.88;5.22;;;;;;;19.67;33.63;98271.84;5111528;28;20044;-66
2021/12/25 03:10:49;;;;;;;7.82;5.10;;;;;;;19.66;33.76;98275.81;5111363;28;20051;-66
2021/12/25 03:15:46;;;;;;;7.60;5.57;;;;;;;19.66;33.37;98258.38;5111341;28;20488;-66
2021/12/25 03:18:28;;;;;;;7.35;5.10;;;;;;;19.68;33.77;98248.47;5111000;28;20043;-65
2021/12/25 03:20:58;;;;;;;6.97;4.93;;;;;;;19.65;33.49;98254.81;5108031;28;20460;-66
2021/12/25 03:23:27;;;;;;;7.63;5.03;;;;;;;19.65;33.49;98254.81;5111187;28;20503;-66
2021/12/25 03:25:54;;;;;;;6.90;4.43;;;;;;;19.68;33.79;98247.69;5111167;28;20577;-66
2021/12/25 03:28:23;;;;;;;6.70;4.95;;;;;;;19.66;33.56;98250.06;5111173;28;20040;-66
2021/12/25 03:30:49;;;;;;;6.57;4.60;;;;;;;19.66;33.65;98248.06;5111134;28;20050;-67
2021/12/25 03:33:18;;;;;;;7.38;5.07;;;;;;;19.65;33.47;98238.19;5111073;28;20072;-67
2021/12/25 03:35:44;;;;;;;8.18;5.07;;;;;;;19.66;33.54;98247.28;5110995;28;20031;-66
2021/12/25 03:38:16;;;;;;;6.88;4.93;;;;;;;19.66;33.56;98244.50;5110774;28;20468;-66
2021/12/25 03:40:42;;;;;;;7.47;5.20;;;;;;;19.84;33.18;98236.19;5110942;28;20052;-66
2021/12/25 03:43:08;;;;;;;6.47;4.85;;;;;;;20.10;32.89;98224.66;5110746;28;20058;-66
2021/12/25 03:45:35;;;;;;;6.10;4.50;;;;;;;20.08;32.92;98218.72;5110611;28;20725;-66
2021/12/25 03:48:16;;;;;;;6.32;4.65;;;;;;;20.04;32.96;98217.94;5110560;28;20490;-66
2021/12/25 03:58:45;;;;;;;6.03;4.03;;;;;;;20.95;31.39;98190.28;5110548;28;20084;-66
2021/12/25 04:01:42;;;;;;;5.88;4.13;;;;;;;20.72;32.19;98190.81;5110484;28;20051;-66
2021/12/25 04:04:20;;;;;;;6.38;4.35;;;;;;;20.49;32.29;98193.25;5110512;28;20530;-66
2021/12/25 04:06:55;;;;;;;6.20;4.13;;;;;;;20.34;32.63;98196.06;5110488;28;20048;-66
2021/12/25 04:09:28;;;;;;;5.68;4.10;;;;;;;20.21;32.72;98189.34;5110392;28;20039;-66
2021/12/25 04:12:00;;;;;;;5.88;4.05;;;;;;;20.13;32.84;98193.31;5110121;28;20392;-65
2021/12/25 04:14:26;;;;;;;5.30;3.65;;;;;;;20.02;33.08;98200.91;5110447;28;20051;-66
2021/12/25 04:16:51;;;;;;;8.27;4.80;;;;;;;19.99;33.11;98212.78;5110278;28;20039;-57
2021/12/25 04:19:18;;;;;;;6.47;4.53;;;;;;;19.93;33.13;98209.63;5110195;28;20381;-57
2021/12/25 04:24:18;;;;;;;6.22;4.20;;;;;;;19.87;33.25;98218.75;5110011;28;20051;-57
2021/12/25 04:26:45;;;;;;;7.65;4.60;;;;;;;19.84;33.18;98203.66;5110054;28;20126;-57
2021/12/25 05:04:17;;;;;;;5.28;3.47;;;;;;;19.65;33.63;98163.28;5109728;28;20382;-66
2021/12/25 05:06:43;;;;;;;5.47;3.72;;;;;;;19.68;33.67;98162.47;5112881;28;20130;-66
2021/12/25 05:09:08;;;;;;;5.68;3.53;;;;;;;19.69;33.70;98155.72;5113273;28;20150;-57
2021/12/25 05:11:34;;;;;;;5.70;3.80;;;;;;;19.68;33.79;98153.34;5113217;28;20096;-57
2021/12/25 05:13:59;;;;;;;5.53;3.85;;;;;;;19.70;33.61;98170.38;5113245;28;20058;-57
2021/12/25 05:16:26;;;;;;;5.55;3.78;;;;;;;19.69;33.69;98161.28;5113061;28;20150;-57
2021/12/25 05:18:51;;;;;;;5.13;3.45;;;;;;;19.71;33.58;98166.41;5113246;28;20096;-57
2021/12/25 05:21:18;;;;;;;5.82;4.05;;;;;;;19.71;33.79;98160.88;5113014;28;20047;-57
2021/12/25 05:23:44;;;;;;;5.32;3.60;;;;;;;19.69;33.69;98164.06;5112916;28;20039;-57
2021/12/25 05:26:10;;;;;;;5.05;3.88;;;;;;;19.69;33.58;98164.06;5113071;28;20096;-57
2021/12/25 05:28:40;;;;;;;6.05;4.10;;;;;;;19.70;33.65;98159.28;5112802;28;20043;-57
2021/12/25 05:31:08;;;;;;;6.03;4.05;;;;;;;19.69;33.81;98160.47;5113144;28;20042;-57
2021/12/25 05:33:34;;;;;;;5.97;4.18;;;;;;;19.68;33.47;98161.69;5119398;28;20476;-57
2021/12/25 05:36:00;;;;;;;5.68;4.10;;;;;;;19.65;33.50;98154.94;5132589;27;20522;-57
2021/12/25 05:38:25;;;;;;;5.47;3.60;;;;;;;19.68;33.67;98156.13;5133383;28;20047;-57
2021/12/25 05:40:51;;;;;;;5.40;3.50;;;;;;;19.68;33.58;98164.44;5133102;27;20078;-57
2021/12/25 05:43:17;;;;;;;4.75;3.60;;;;;;;19.68;33.50;98158.91;5133368;28;20039;-57
2021/12/25 05:45:43;;;;;;;6.60;3.90;;;;;;;19.66;33.56;98159.31;5133266;27;20031;-57
2021/12/25 05:48:08;;;;;;;6.45;3.97;;;;;;;19.67;33.50;98154.56;5133163;28;20108;-57
2021/12/25 05:50:34;;;;;;;5.57;3.72;;;;;;;19.66;33.67;98164.06;5133176;27;20107;-57
2021/12/25 05:53:00;;;;;;;6.22;4.05;;;;;;;19.68;33.80;98165.25;5132914;28;20043;-57
2021/12/25 05:55:26;;;;;;;5.32;3.78;;;;;;;19.69;33.66;98157.72;5133171;27;20043;-57
2021/12/25 05:57:52;;;;;;;5.05;3.50;;;;;;;19.69;33.50;98161.28;5133174;27;20078;-57
2021/12/25 06:00:19;;;;;;;5.38;3.50;;;;;;;19.69;33.38;98157.72;5133036;27;20043;-57
2021/12/25 06:02:45;;;;;;;6.03;3.83;;;;;;;19.65;33.50;98157.72;5129251;28;20043;-57
2021/12/25 06:05:11;;;;;;;5.60;3.60;;;;;;;19.67;33.74;98166.44;5133031;27;20081;-57
2021/12/25 06:07:37;;;;;;;4.88;3.38;;;;;;;19.67;33.85;98165.66;5132945;27;20079;-57
2021/12/25 06:10:07;;;;;;;5.57;3.20;;;;;;;19.68;33.76;98172.78;5132975;27;20039;-57
2021/12/25 06:12:32;;;;;;;5.05;3.83;;;;;;;19.66;33.67;98177.94;5132749;27;20464;-56
2021/12/25 06:15:01;;;;;;;4.95;3.20;;;;;;;19.67;33.72;98185.84;5132748;27;20519;-57
2021/12/25 06:17:27;;;;;;;5.90;3.58;;;;;;;19.65;33.54;98168.81;5131722;27;20047;-57
2021/12/25 06:19:53;;;;;;;4.80;3.20;;;;;;;19.65;33.77;98160.50;5132620;27;20046;-57
2021/12/25 06:22:19;;;;;;;5.28;3.58;;;;;;;19.66;33.65;98170.41;5132782;27;20043;-57
2021/12/25 06:24:49;;;;;;;6.82;3.88;;;;;;;19.64;33.61;98167.22;5132475;27;20043;-57
2021/12/25 06:27:16;;;;;;;5.25;3.85;;;;;;;19.67;33.65;98166.44;5132661;27;20043;-57
2021/12/25 06:29:42;;;;;;;6.25;4.30;;;;;;;19.67;33.48;98171.97;5132552;27;20039;-58
2021/12/25 06:32:08;;;;;;;6.90;4.10;;;;;;;19.67;33.60;98173.97;5132521;27;20448;-57
2021/12/25 06:34:34;;;;;;;6.18;4.15;;;;;;;19.64;33.47;98172.75;5132495;27;20459;-57
2021/12/25 06:36:59;;;;;;;6.47;4.10;;;;;;;19.63;33.40;98176.72;5132297;28;20586;-57
2021/12/25 06:39:25;;;;;;;5.85;4.22;;;;;;;19.66;33.45;98177.94;5132447;27;20043;-57
2021/12/25 06:41:50;;;;;;;6.15;4.13;;;;;;;19.65;33.48;98182.69;5132307;27;20114;-57
2021/12/25 06:44:17;;;;;;;5.80;3.92;;;;;;;19.66;33.56;98184.28;5132254;28;20043;-57
2021/12/25 06:46:43;;;;;;;6.15;3.97;;;;;;;19.64;33.64;98171.97;5132258;27;20051;-57
2021/12/25 06:49:09;;;;;;;5.25;3.85;;;;;;;19.65;33.68;98179.91;5132325;28;20462;-57
2021/12/25 06:51:35;;;;;;;4.82;3.53;;;;;;;19.66;33.74;98178.72;5132290;27;20502;-57
2021/12/25 06:54:02;;;;;;;5.28;3.38;;;;;;;19.66;33.66;98172.38;5132167;27;20055;-57
2021/12/25 06:56:28;;;;;;;5.70;3.63;;;;;;;19.67;33.78;98168.41;5132123;27;20055;-56
2021/12/25 06:58:53;;;;;;;4.50;3.50;;;;;;;19.67;33.71;98154.56;5132207;27;20052;-57
2021/12/25 07:01:18;;;;;;;6.25;3.95;;;;;;;19.67;33.85;98160.88;5131920;28;20134;-57
2021/12/25 07:03:44;;;;;;;6.60;3.70;;;;;;;19.66;33.83;98159.31;5131990;28;20414;-57
2021/12/25 07:06:10;;;;;;;5.35;3.78;;;;;;;19.65;33.91;98166.06;5132212;28;20116;-57
2021/12/25 07:08:35;;;;;;;5.60;3.78;;;;;;;19.64;33.77;98163.66;5131972;27;20047;-66
2021/12/25 07:11:01;;;;;;;7.97;3.78;;;;;;;19.64;33.84;98164.44;5132753;28;20077;-68
2021/12/25 07:13:26;;;;;;;5.88;3.70;;;;;;;19.65;33.93;98154.16;5132342;27;20055;-57
2021/12/25 07:15:52;;;;;;;6.07;3.75;;;;;;;19.65;33.92;98157.72;5131914;27;20047;-57
2021/12/25 07:18:17;;;;;;;5.40;3.67;;;;;;;19.67;33.93;98151.78;5131702;27;20120;-57
2021/12/25 07:20:45;;;;;;;5.60;3.42;;;;;;;19.66;33.96;98164.84;5131835;27;20043;-57
2021/12/25 07:23:11;;;;;;;5.28;3.75;;;;;;;19.67;33.84;98160.88;5131774;27;20125;-57
2021/12/25 07:25:36;;;;;;;5.55;3.42;;;;;;;19.68;34.01;98164.44;5131654;27;20126;-66
2021/12/25 07:28:02;;;;;;;5.25;3.55;;;;;;;19.66;33.78;98152.97;5131164;27;20058;-66
2021/12/25 07:30:27;;;;;;;4.55;3.35;;;;;;;19.63;33.97;98150.97;5131013;27;20103;-66
2021/12/25 07:32:53;;;;;;;5.38;3.53;;;;;;;19.65;33.87;98163.28;5131505;27;20077;-66
2021/12/25 07:35:18;;;;;;;4.82;3.10;;;;;;;19.63;33.93;98157.31;5131502;27;20047;-66
2021/12/25 07:37:44;;;;;;;5.22;3.55;;;;;;;19.64;33.82;98160.88;5131726;27;20051;-66
2021/12/25 07:40:10;;;;;;;4.93;3.45;;;;;;;19.63;34.05;98157.31;5131428;27;20035;-66
2021/12/25 07:42:35;;;;;;;5.30;3.63;;;;;;;19.64;33.91;98158.09;5131309;27;20054;-67
2021/12/25 07:45:05;;;;;;;5.30;3.60;;;;;;;19.62;33.89;98158.50;5131375;27;20461;-57
2021/12/25 07:47:34;;;;;;;4.85;3.50;;;;;;;19.62;34.29;98155.72;5131331;27;20051;-57
2021/12/25 07:50:02;;;;;;;4.78;3.28;;;;;;;19.62;33.98;98163.25;5131205;27;20130;-57
2021/12/25 07:52:28;;;;;;;5.03;3.63;;;;;;;19.60;33.94;98160.88;5131432;27;20039;-66
2021/12/25 07:54:54;;;;;;;6.28;3.70;;;;;;;19.58;33.91;98157.72;5131230;27;20047;-66
2021/12/25 07:57:19;;;;;;;5.38;3.60;;;;;;;19.60;34.04;98154.56;5131227;27;20051;-66
2021/12/25 07:59:45;;;;;;;5.15;3.38;;;;;;;19.59;33.95;98156.53;5131172;27;20414;-66
2021/12/25 08:02:11;;;;;;;6.20;4.00;;;;;;;19.60;33.98;98160.88;5131096;27;20066;-65
2021/12/25 08:04:37;;;;;;;6.18;3.58;;;;;;;19.57;34.00;98149.75;5131200;27;20395;-65
2021/12/25 08:07:03;;;;;;;5.57;3.70;;;;;;;19.55;34.00;98154.91;5131037;28;20071;-66
2021/12/25 08:09:29;;;;;;;4.57;3.40;;;;;;;19.55;34.16;98154.91;5130820;27;20122;-66
2021/12/25 08:11:57;;;;;;;5.00;3.67;;;;;;;19.54;34.23;98151.34;5130710;27;20546;-66
2021/12/25 08:14:25;;;;;;;4.28;3.22;;;;;;;19.55;34.16;98152.94;5130894;27;20182;-66
2021/12/25 08:16:57;;;;;;;5.35;3.58;;;;;;;19.56;34.17;98148.16;5131119;27;20084;-66
2021/12/25 08:19:23;;;;;;;4.95;3.58;;;;;;;19.56;34.15;98150.94;5131041;27;20130;-66
2021/12/25 08:21:49;;;;;;;5.03;3.72;;;;;;;19.55;34.19;98152.94;5130909;27;20130;-66
2021/12/25 08:24:15;;;;;;;4.53;3.35;;;;;;;19.56;34.15;98148.16;5130691;27;20051;-66
2021/12/25 08:26:42;;;;;;;5.75;3.67;;;;;;;19.55;34.20;98158.47;5130863;27;20122;-66
2021/12/25 08:29:07;;;;;;;4.78;3.45;;;;;;;19.54;34.33;98159.66;5130744;27;20050;-66
2021/12/25 08:31:32;;;;;;;5.15;3.42;;;;;;;19.56;34.24;98171.16;5130499;28;20039;-66
2021/12/25 08:33:58;;;;;;;5.32;3.80;;;;;;;19.52;34.25;98168.41;5130594;27;20050;-65
2021/12/25 08:36:23;;;;;;;5.63;3.78;;;;;;;19.55;34.09;98177.91;5130831;27;20051;-65
2021/12/25 08:38:49;;;;;;;5.47;3.90;;;;;;;19.53;34.35;98175.53;5130794;27;20433;-67
2021/12/25 08:41:15;;;;;;;4.93;3.60;;;;;;;19.55;34.19;98168.78;5129981;27;20043;-67
2021/12/25 08:43:48;;;;;;;5.93;4.07;;;;;;;19.56;34.13;98165.59;5130634;27;20114;-66
2021/12/25 08:46:34;;;;;;;4.93;3.47;;;;;;;19.57;34.07;98163.63;5130636;27;20466;-66
2021/12/25 08:49:00;;;;;;;6.30;4.15;;;;;;;19.57;34.26;98167.22;5130410;27;20542;-57
2021/12/25 08:51:26;;;;;;;5.00;3.63;;;;;;;19.57;34.35;98155.31;5130234;28;20066;-57
2021/12/25 08:53:51;;;;;;;5.40;3.83;;;;;;;19.58;34.34;98157.72;5130233;28;20043;-57
2021/12/25 08:56:17;;;;;;;5.75;3.80;;;;;;;19.57;34.42;98158.91;5130272;28;20437;-57
2021/12/25 08:58:42;;;;;;;5.35;3.53;;;;;;;19.59;34.47;98159.31;5130196;28;20047;-66
2021/12/25 09:01:09;;;;;;;5.00;3.28;;;;;;;19.58;34.55;98156.94;5130388;28;20047;-57
2021/12/25 09:03:34;;;;;;;6.90;3.45;;;;;;;19.58;34.50;98160.50;5130301;27;20139;-57
2021/12/25 09:06:02;;;;;;;5.57;3.95;;;;;;;19.58;34.45;98163.28;5130037;28;20122;-57
2021/12/25 09:08:27;;;;;;;4.57;3.28;;;;;;;19.59;34.54;98169.63;5130118;27;20111;-57
2021/12/25 09:10:54;;;;;;;5.30;3.72;;;;;;;19.59;34.53;98164.84;5130183;27;20445;-57
2021/12/25 09:13:19;;;;;;;5.10;3.50;;;;;;;19.61;34.71;98164.47;5130044;27;20083;-57
2021/12/25 09:15:45;;;;;;;4.72;3.22;;;;;;;19.56;34.71;98167.59;5130148;27;20485;-65
2021/12/25 09:18:10;;;;;;;5.03;3.30;;;;;;;19.59;34.65;98166.84;5130127;28;20047;-57
2021/12/25 09:20:36;;;;;;;4.72;3.10;;;;;;;19.61;34.60;98168.03;5129959;27;20095;-57
2021/12/25 09:23:03;;;;;;;5.20;3.53;;;;;;;19.61;34.68;98172.78;5130033;27;20086;-57
2021/12/25 09:25:29;;;;;;;5.03;3.30;;;;;;;19.62;34.67;98168.81;5129788;27;20048;-57
2021/12/25 09:27:55;;;;;;;4.68;3.17;;;;;;;19.61;34.75;98168.03;5129914;27;20075;-57
2021/12/25 09:30:21;;;;;;;6.47;3.00;;;;;;;19.62;34.76;98169.59;5129864;27;20074;-57
2021/12/25 09:32:48;;;;;;;4.43;3.08;;;;;;;19.61;34.76;98173.56;5129756;28;20040;-57
2021/12/25 09:35:14;;;;;;;5.43;3.55;;;;;;;19.60;34.76;98174.75;5129830;28;20043;-57
2021/12/25 09:37:40;;;;;;;4.85;3.38;;;;;;;19.58;34.68;98168.81;5129818;27;20121;-57
2021/12/25 09:40:08;;;;;;;5.20;3.08;;;;;;;19.60;34.91;98165.66;5129651;27;20155;-57
2021/12/25 09:42:34;;;;;;;4.45;3.17;;;;;;;19.61;34.87;98170.78;5129938;27;20048;-57
2021/12/25 09:45:00;;;;;;;4.35;3.20;;;;;;;19.61;34.86;98170.78;5130089;27;20043;-57
2021/12/25 09:47:26;;;;;;;5.10;3.20;;;;;;;19.60;34.90;98171.19;5129667;27;20092;-57
2021/12/25 09:49:51;;;;;;;4.97;3.22;;;;;;;19.60;34.90;98174.75;5129450;27;20053;-57
2021/12/25 09:52:18;;;;;;;4.55;2.90;;;;;;;19.61;35.00;98183.88;5130839;27;20130;-57
2021/12/25 09:54:43;;;;;;;4.95;3.30;;;;;;;19.63;34.95;98187.03;5133039;27;20495;-57
2021/12/25 09:57:09;;;;;;;4.65;3.25;;;;;;;19.64;34.94;98188.63;5133065;27;20057;-57
2021/12/25 09:59:35;;;;;;;4.65;2.97;;;;;;;19.61;35.12;98190.22;5133003;27;20126;-66
2021/12/25 10:02:01;;;;;;;4.53;2.97;;;;;;;19.60;35.04;98191.41;5133126;27;20049;-66
2021/12/25 10:04:38;;;;;;;4.20;2.80;;;;;;;19.61;35.18;98200.50;5133019;27;20059;-57
2021/12/25 10:07:21;;;;;;;4.28;2.97;;;;;;;19.62;35.29;98200.13;5133004;27;20043;-57
2021/12/25 10:10:01;;;;;;;4.03;3.22;;;;;;;19.61;35.05;98200.50;5129528;28;20036;-57
2021/12/25 10:12:32;;;;;;;4.95;2.88;;;;;;;19.58;35.10;98196.56;5132690;27;20499;-57
2021/12/25 10:14:58;;;;;;;4.82;3.15;;;;;;;19.60;35.13;98194.19;5132733;27;20048;-66
2021/12/25 10:17:29;;;;;;;4.57;3.10;;;;;;;19.60;35.42;98194.19;5132771;27;20399;-66
2021/12/25 10:20:08;;;;;;;5.00;3.30;;;;;;;19.59;35.24;98197.34;5132871;27;20452;-66
2021/12/25 10:22:35;;;;;;;4.28;2.88;;;;;;;19.58;35.31;98193.00;5132757;27;20095;-66
2021/12/25 10:25:06;;;;;;;3.97;2.97;;;;;;;19.60;35.23;98194.19;5132532;27;20043;-57
2021/12/25 10:27:31;;;;;;;3.55;2.60;;;;;;;19.58;35.23;98191.00;5132743;27;20437;-57
2021/12/25 10:30:05;;;;;;;4.85;2.80;;;;;;;19.58;35.36;98188.25;5132411;27;20139;-57
2021/12/25 10:32:36;;;;;;;4.43;2.97;;;;;;;19.57;35.40;98189.41;5132413;27;20473;-66
2021/12/25 10:35:13;;;;;;;4.93;3.53;;;;;;;19.59;35.27;98192.59;5132533;27;20039;-67
2021/12/25 10:37:43;;;;;;;4.57;3.35;;;;;;;19.59;35.32;98198.16;5130009;28;20053;-65
2021/12/25 10:40:17;;;;;;;4.43;3.03;;;;;;;19.58;35.48;98196.56;5132477;27;20046;-66
2021/12/25 10:42:45;;;;;;;4.97;3.17;;;;;;;19.59;35.44;98192.59;5132479;27;20039;-67
2021/12/25 10:45:13;;;;;;;4.28;2.92;;;;;;;19.58;35.56;98188.25;5132334;27;20088;-66
2021/12/25 10:47:39;;;;;;;5.15;3.15;;;;;;;19.59;35.53;98189.81;5132318;27;20066;-66
2021/12/25 10:50:17;;;;;;;4.25;3.15;;;;;;;19.60;35.48;98185.06;5132211;27;20418;-66
2021/12/25 10:52:47;;;;;;;4.65;3.08;;;;;;;19.60;35.51;98187.84;5131962;27;20148;-57
2021/12/25 10:55:15;;;;;;;4.82;3.20;;;;;;;19.61;35.50;98186.66;5131955;27;20043;-57
2021/12/25 10:57:59;;;;;;;5.00;3.13;;;;;;;19.60;35.57;98185.84;5132134;27;20038;-57
2021/12/25 11:00:24;;;;;;;4.82;3.40;;;;;;;19.59;35.60;98183.47;5132040;27;20054;-57
2021/12/25 11:02:51;;;;;;;3.70;2.67;;;;;;;19.59;35.65;98186.25;5131728;27;20411;-57
2021/12/25 11:05:23;;;;;;;5.13;3.30;;;;;;;19.57;35.67;98172.75;5131979;27;20063;-57
2021/12/25 11:08:09;;;;;;;4.53;3.22;;;;;;;19.59;35.82;98177.94;5132129;27;20047;-57
2021/12/25 11:10:44;;;;;;;4.10;3.10;;;;;;;19.58;35.66;98162.50;5117337;28;20043;-57
2021/12/25 11:13:41;;;;;;;4.63;3.08;;;;;;;19.60;35.66;98165.66;5128676;28;20117;-66
2021/12/25 11:16:08;;;;;;;4.25;2.88;;;;;;;20.00;35.23;98154.13;5130770;28;20537;-66
2021/12/25 11:19:05;;;;;;;5.43;3.53;;;;;;;20.65;33.94;98146.38;5131694;27;20687;-58
2021/12/25 11:21:54;;;;;;;5.82;3.70;;;;;;;20.44;34.35;98143.66;5131612;27;20041;-57
2021/12/25 11:24:35;;;;;;;4.13;2.75;;;;;;;20.24;34.60;98151.66;5131533;27;20445;-57
2021/12/25 11:27:06;;;;;;;4.85;3.17;;;;;;;20.12;34.80;98141.00;5131451;27;20484;-57
2021/12/25 11:29:33;;;;;;;4.97;3.40;;;;;;;20.02;35.05;98137.06;5131648;27;20039;-57
2021/12/25 11:32:00;;;;;;;4.68;3.13;;;;;;;19.92;35.27;98126.75;5131545;27;20070;-57
2021/12/25 11:34:27;;;;;;;4.78;3.38;;;;;;;19.87;35.29;98130.75;5127802;28;20550;-57
2021/12/25 11:36:55;;;;;;;3.97;2.97;;;;;;;19.81;35.50;98132.34;5131690;27;20043;-57
2021/12/25 11:39:22;;;;;;;5.47;3.50;;;;;;;19.78;35.52;98138.66;5131364;27;20062;-57
2021/12/25 11:41:49;;;;;;;5.45;3.70;;;;;;;19.72;35.52;98135.53;5131270;27;20061;-57
2021/12/25 11:44:30;;;;;;;5.18;3.42;;;;;;;19.71;35.68;98138.69;5131273;28;20035;-57
2021/12/25 11:46:55;;;;;;;5.38;3.70;;;;;;;19.66;35.70;98128.78;5131348;27;20126;-57
2021/12/25 11:49:21;;;;;;;4.97;3.53;;;;;;;19.68;35.79;98128.38;5131142;27;20126;-57
2021/12/25 11:51:47;;;;;;;6.30;3.72;;;;;;;19.66;35.80;98134.34;5131432;27;20372;-57
2021/12/25 11:57:31;;;;;;;5.55;3.47;;;;;;;19.62;35.91;98124.44;5131252;27;20097;-57
2021/12/25 11:59:49;;;;;;;5.32;3.40;;;;;;;19.60;35.83;98113.75;5131085;28;20047;-66
2021/12/25 12:02:41;;;;;;;5.43;3.58;;;;;;;19.59;35.90;98119.69;5127743;28;20095;-57
2021/12/25 12:05:24;;;;;;;6.57;4.03;;;;;;;19.57;35.96;98122.03;5131160;27;20121;-57
2021/12/25 12:08:12;;;;;;;5.30;3.65;;;;;;;19.53;36.03;98120.06;5130945;27;20491;-57
2021/12/25 12:11:00;;;;;;;4.93;3.50;;;;;;;19.54;36.10;98118.06;5130980;27;20047;-66
2021/12/25 12:13:31;;;;;;;4.43;3.40;;;;;;;19.53;36.03;98110.94;5130834;27;20058;-57
2021/12/25 12:16:00;;;;;;;5.68;3.95;;;;;;;19.53;36.05;98117.28;5129006;27;20051;-57
2021/12/25 12:20:56;;;;;;;5.05;3.88;;;;;;;19.53;36.26;98117.28;5130729;28;20055;-57
2021/12/25 12:26:14;;;;;;;4.32;3.40;;;;;;;19.52;36.25;98126.00;5130082;27;20088;-57
2021/12/25 12:28:44;;;;;;;5.10;3.50;;;;;;;19.49;36.35;98113.72;5130631;27;20096;-57
2021/12/25 12:31:34;;;;;;;4.45;3.17;;;;;;;19.49;36.43;98110.94;5130800;27;20046;-57
2021/12/25 12:34:01;;;;;;;5.15;3.88;;;;;;;19.51;36.41;98105.81;5130362;28;20047;-66
2021/12/25 12:36:27;;;;;;;4.97;3.60;;;;;;;19.49;36.42;98105.38;5130917;27;20465;-66
2021/12/25 12:39:12;;;;;;;4.93;3.40;;;;;;;19.49;36.36;98113.72;5131132;27;20074;-66
2021/12/25 12:41:43;;;;;;;4.70;3.10;;;;;;;19.50;36.52;98112.53;5128043;28;20043;-67
2021/12/25 12:44:15;;;;;;;5.60;3.50;;;;;;;19.49;36.55;98116.47;5131116;27;20028;-65
2021/12/25 12:46:51;;;;;;;4.88;3.30;;;;;;;19.49;36.49;98104.59;5131080;27;20080;-57
2021/12/25 12:49:19;;;;;;;4.63;3.17;;;;;;;19.63;36.38;98106.59;5130408;27;20388;-57
2021/12/25 12:52:05;;;;;;;4.20;3.00;;;;;;;20.68;34.66;98105.88;5130474;27;20491;-65
2021/12/25 12:54:41;;;;;;;4.53;3.25;;;;;;;20.83;34.31;98105.38;5115713;28;20104;-66
2021/12/25 12:57:06;;;;;;;4.93;3.67;;;;;;;20.61;34.77;98112.25;5130556;27;20031;-57
2021/12/25 12:59:46;;;;;;;5.32;3.33;;;;;;;20.40;34.89;98107.56;5130445;27;20411;-57
2021/12/25 13:02:12;;;;;;;5.13;3.45;;;;;;;20.23;35.32;98098.13;5130097;27;20096;-57
2021/12/25 13:04:56;;;;;;;5.38;3.70;;;;;;;20.08;35.58;98109.69;5130249;27;20462;-57
2021/12/25 13:07:22;;;;;;;4.85;3.25;;;;;;;19.98;35.89;98108.50;5130435;27;20444;-57
2021/12/25 13:10:23;;;;;;;5.22;3.60;;;;;;;19.88;36.07;98112.91;5130112;27;20503;-57
2021/12/25 13:12:50;;;;;;;5.03;3.40;;;;;;;19.84;36.10;98108.53;5115977;27;20070;-66
2021/12/25 13:15:18;;;;;;;4.55;3.28;;;;;;;19.76;36.28;98097.47;5130147;27;20051;-66
2021/12/25 13:18:11;;;;;;;4.93;3.33;;;;;;;19.73;36.42;98100.25;5130068;28;20522;-66